createdAt,value
2018-06-12T00:00:18.029Z,17.30
2018-06-12T00:02:45.763Z,17.20
2018-06-12T00:05:13.578Z,17.20
2018-06-12T00:07:41.277Z,17.30
2018-06-12T00:10:09.139Z,17.20
2018-06-12T00:15:04.500Z,17.20
2018-06-12T00:17:32.244Z,17.20
2018-06-12T00:19:59.997Z,17.20
2018-06-12T00:22:27.681Z,17.30
2018-06-12T00:24:55.414Z,17.30
2018-06-12T00:27:23.167Z,17.30
2018-06-12T00:29:50.940Z,17.30
2018-06-12T00:32:18.682Z,17.30
2018-06-12T00:34:46.457Z,17.40
2018-06-12T00:37:14.238Z,17.40
2018-06-12T00:39:41.900Z,17.40
2018-06-12T00:42:09.698Z,17.40
2018-06-12T00:44:37.635Z,17.40
2018-06-12T00:47:05.550Z,17.40
2018-06-12T00:49:33.308Z,17.40
2018-06-12T00:52:01.038Z,17.40
2018-06-12T00:54:28.805Z,17.40
2018-06-12T00:57:05.650Z,17.40
2018-06-12T00:59:33.481Z,17.40
2018-06-12T01:02:01.314Z,17.40
2018-06-12T01:04:29.294Z,17.40
2018-06-12T01:06:57.062Z,17.40
2018-06-12T01:09:24.745Z,17.40
2018-06-12T01:11:52.501Z,17.40
2018-06-12T01:14:20.339Z,17.50
2018-06-12T01:16:48.093Z,17.40
2018-06-12T01:19:15.809Z,17.40
2018-06-12T01:21:43.587Z,17.30
2018-06-12T01:24:11.357Z,17.30
2018-06-12T01:26:39.077Z,17.30
2018-06-12T01:29:06.812Z,17.20
2018-06-12T01:31:34.600Z,17.20
2018-06-12T01:34:02.368Z,17.20
2018-06-12T01:36:30.129Z,17.20
2018-06-12T01:38:57.878Z,17.20
2018-06-12T01:41:25.615Z,17.10
2018-06-12T01:43:53.376Z,17.20
2018-06-12T01:46:21.111Z,17.10
2018-06-12T01:48:48.833Z,17.10
2018-06-12T01:51:16.618Z,17.10
2018-06-12T01:53:44.290Z,17.00
2018-06-12T01:56:12.085Z,17.10
2018-06-12T01:58:39.834Z,17.10
2018-06-12T02:01:07.580Z,17.10
2018-06-12T02:03:35.316Z,17.10
2018-06-12T02:06:03.170Z,17.10
2018-06-12T02:08:30.869Z,17.00
2018-06-12T02:10:58.643Z,17.00
2018-06-12T02:13:26.368Z,17.00
2018-06-12T02:15:54.057Z,17.00
2018-06-12T02:18:21.796Z,17.00
2018-06-12T02:20:49.534Z,16.90
2018-06-12T02:23:17.282Z,17.10
2018-06-12T02:25:45.054Z,17.10
2018-06-12T02:28:12.747Z,17.10
2018-06-12T02:30:40.678Z,17.10
2018-06-12T02:33:08.449Z,17.10
2018-06-12T02:35:36.218Z,17.20
2018-06-12T02:38:04.004Z,17.10
2018-06-12T02:40:31.686Z,17.10
2018-06-12T02:42:59.406Z,17.10
2018-06-12T02:45:27.158Z,17.10
2018-06-12T02:47:54.893Z,17.20
2018-06-12T02:50:22.623Z,17.20
2018-06-12T02:52:50.310Z,17.20
2018-06-12T02:55:18.030Z,17.20
2018-06-12T02:57:45.760Z,17.20
2018-06-12T03:00:13.573Z,17.30
2018-06-12T03:02:41.322Z,17.30
2018-06-12T03:05:09.054Z,17.30
2018-06-12T03:07:36.794Z,17.30
2018-06-12T03:10:04.561Z,17.40
2018-06-12T03:12:32.370Z,17.40
2018-06-12T03:15:00.195Z,17.40
2018-06-12T03:17:28.059Z,17.40
2018-06-12T03:19:57.956Z,17.40
2018-06-12T03:22:25.753Z,17.40
2018-06-12T03:24:53.507Z,17.40
2018-06-12T03:27:21.353Z,17.30
2018-06-12T03:29:49.221Z,17.30
2018-06-12T03:32:17.005Z,17.30
2018-06-12T03:34:46.330Z,17.30
2018-06-12T03:37:14.070Z,17.30
2018-06-12T03:39:41.776Z,17.40
2018-06-12T03:42:09.478Z,17.40
2018-06-12T03:44:37.233Z,17.40
2018-06-12T03:47:05.014Z,17.40
2018-06-12T03:49:32.891Z,17.40
2018-06-12T03:52:00.624Z,17.40
2018-06-12T03:54:28.379Z,17.50
2018-06-12T03:56:56.108Z,17.60
2018-06-12T03:59:23.872Z,17.60
2018-06-12T04:01:51.614Z,17.70
2018-06-12T04:04:19.415Z,17.70
2018-06-12T04:06:47.158Z,17.70
2018-06-12T04:09:14.909Z,17.80
2018-06-12T04:11:42.686Z,17.80
2018-06-12T04:14:10.430Z,17.80
2018-06-12T04:16:38.129Z,17.80
2018-06-12T04:21:34.377Z,17.80
2018-06-12T04:24:02.121Z,17.70
2018-06-12T04:26:29.945Z,17.60
2018-06-12T04:28:57.764Z,17.60
2018-06-12T04:31:25.558Z,17.60
2018-06-12T04:33:53.682Z,17.60
2018-06-12T04:36:21.505Z,17.60
2018-06-12T04:38:49.193Z,17.70
2018-06-12T04:41:16.994Z,17.70
2018-06-12T04:43:44.713Z,17.70
2018-06-12T04:46:12.518Z,17.70
2018-06-12T04:48:40.253Z,17.80
2018-06-12T04:51:08.033Z,17.90
2018-06-12T04:53:35.744Z,17.90
2018-06-12T04:56:04.105Z,18.00
2018-06-12T04:58:31.809Z,18.00
2018-06-12T05:00:59.504Z,18.20
2018-06-12T05:03:27.189Z,18.30
2018-06-12T05:05:54.988Z,18.30
2018-06-12T05:08:22.693Z,18.40
2018-06-12T05:10:50.441Z,18.50
2018-06-12T05:13:18.237Z,18.50
2018-06-12T05:15:46.338Z,18.50
2018-06-12T05:18:14.070Z,18.40
2018-06-12T05:20:41.844Z,18.50
2018-06-12T05:23:09.578Z,18.60
2018-06-12T05:25:37.458Z,18.70
2018-06-12T05:28:05.221Z,18.70
2018-06-12T05:30:33.050Z,18.70
2018-06-12T05:33:00.959Z,18.60
2018-06-12T05:35:28.753Z,18.50
2018-06-12T05:37:56.628Z,18.30
2018-06-12T05:40:24.424Z,18.40
2018-06-12T05:42:52.243Z,18.40
2018-06-12T05:45:20.090Z,18.50
2018-06-12T05:47:47.869Z,18.60
2018-06-12T05:50:15.674Z,18.70
2018-06-12T05:52:43.422Z,19.00
2018-06-12T05:55:11.232Z,19.20
2018-06-12T05:57:39.063Z,19.30
2018-06-12T06:00:06.885Z,19.30
2018-06-12T06:02:34.673Z,19.30
2018-06-12T06:05:02.500Z,19.50
2018-06-12T06:07:30.481Z,19.80
2018-06-12T06:09:58.819Z,19.90
2018-06-12T06:12:26.522Z,20.00
2018-06-12T06:14:54.301Z,20.20
2018-06-12T06:17:22.087Z,20.40
2018-06-12T06:19:49.842Z,20.60
2018-06-12T06:22:17.599Z,20.60
2018-06-12T06:24:45.322Z,20.80
2018-06-12T06:27:13.074Z,21.00
2018-06-12T06:29:40.790Z,20.90
2018-06-12T06:32:08.518Z,21.00
2018-06-12T06:34:36.265Z,21.00
2018-06-12T06:37:04.095Z,21.00
2018-06-12T06:39:31.878Z,21.20
2018-06-12T06:41:59.607Z,21.00
2018-06-12T06:44:28.061Z,20.90
2018-06-12T06:46:55.836Z,21.00
2018-06-12T06:49:23.533Z,20.90
2018-06-12T06:51:51.328Z,21.00
2018-06-12T06:54:19.257Z,20.90
2018-06-12T06:56:47.016Z,21.10
2018-06-12T06:59:14.786Z,21.10
2018-06-12T07:01:42.809Z,21.60
2018-06-12T07:04:10.572Z,22.60
2018-06-12T07:06:38.343Z,22.60
2018-06-12T07:09:08.715Z,22.60
2018-06-12T07:11:36.481Z,22.30
2018-06-12T07:14:04.312Z,21.90
2018-06-12T07:16:32.015Z,21.30
2018-06-12T07:18:59.775Z,21.10
2018-06-12T07:21:27.570Z,20.90
2018-06-12T07:23:55.289Z,20.60
2018-06-12T07:26:23.012Z,20.70
2018-06-12T07:28:50.801Z,20.70
2018-06-12T07:31:18.536Z,20.70
2018-06-12T07:33:46.267Z,20.80
2018-06-12T07:36:14.003Z,20.90
2018-06-12T07:38:41.725Z,20.80
2018-06-12T07:41:09.491Z,20.60
2018-06-12T07:43:37.289Z,20.60
2018-06-12T07:46:05.285Z,20.60
2018-06-12T07:48:33.032Z,20.70
2018-06-12T07:51:00.874Z,20.70
2018-06-12T07:53:28.542Z,20.60
2018-06-12T07:55:56.345Z,20.80
2018-06-12T07:58:24.054Z,20.90
2018-06-12T08:00:51.857Z,21.10
2018-06-12T08:03:19.499Z,21.60
2018-06-12T08:05:47.455Z,22.40
2018-06-12T08:08:15.218Z,23.10
2018-06-12T08:13:10.727Z,23.10
2018-06-12T08:15:38.439Z,23.50
2018-06-12T08:18:06.199Z,23.80
2018-06-12T08:20:33.937Z,23.90
2018-06-12T08:23:01.603Z,23.70
2018-06-12T08:27:56.919Z,23.40
2018-06-12T08:30:24.712Z,23.20
2018-06-12T08:32:52.322Z,23.00
2018-06-12T08:35:20.025Z,22.90
2018-06-12T08:37:47.864Z,22.90
2018-06-12T08:40:15.574Z,22.90
2018-06-12T08:42:43.246Z,23.00
2018-06-12T08:45:11.051Z,22.90
2018-06-12T08:47:38.763Z,22.80
2018-06-12T08:50:06.647Z,22.90
2018-06-12T08:52:34.364Z,23.00
2018-06-12T08:55:02.067Z,23.00
2018-06-12T08:57:29.754Z,22.90
2018-06-12T08:59:57.777Z,23.00
2018-06-12T09:02:25.475Z,22.60
2018-06-12T09:04:53.259Z,22.60
2018-06-12T09:07:20.983Z,22.70
2018-06-12T09:09:48.731Z,22.70
2018-06-12T09:12:16.494Z,22.70
2018-06-12T09:14:44.300Z,22.60
2018-06-12T09:17:11.999Z,22.60
2018-06-12T09:19:39.723Z,22.60
2018-06-12T09:22:07.427Z,22.70
2018-06-12T09:24:35.221Z,22.80
2018-06-12T09:27:02.989Z,23.10
2018-06-12T09:29:30.787Z,23.20
2018-06-12T09:31:58.586Z,23.60
2018-06-12T09:34:26.467Z,24.10
2018-06-12T09:36:54.297Z,23.90
2018-06-12T09:39:22.023Z,24.30
2018-06-12T09:41:49.771Z,24.20
2018-06-12T09:44:17.584Z,24.20
2018-06-12T09:46:45.358Z,24.00
2018-06-12T09:49:13.089Z,24.00
2018-06-12T09:51:40.834Z,24.00
2018-06-12T09:54:08.583Z,24.00
2018-06-12T09:56:36.298Z,24.00
2018-06-12T09:59:04.055Z,24.40
2018-06-12T10:01:31.782Z,24.70
2018-06-12T10:03:59.562Z,24.90
2018-06-12T10:06:27.363Z,24.90
2018-06-12T10:08:55.187Z,25.10
2018-06-12T10:11:22.900Z,25.80
2018-06-12T10:13:50.754Z,26.30
2018-06-12T10:16:18.752Z,26.50
2018-06-12T10:18:46.490Z,26.80
2018-06-12T10:21:14.256Z,27.00
2018-06-12T10:26:09.857Z,26.30
2018-06-12T10:28:37.878Z,26.30
2018-06-12T10:31:05.622Z,25.90
2018-06-12T10:33:33.383Z,25.60
2018-06-12T10:36:01.122Z,25.50
2018-06-12T10:38:28.858Z,25.20
2018-06-12T10:40:56.586Z,25.00
2018-06-12T10:45:52.105Z,24.80
2018-06-12T10:48:19.816Z,24.80
2018-06-12T10:50:47.615Z,24.90
2018-06-12T10:53:15.321Z,24.70
2018-06-12T10:55:43.111Z,24.80
2018-06-12T10:58:10.817Z,24.60
2018-06-12T11:00:38.680Z,24.60
2018-06-12T11:03:06.386Z,24.70
2018-06-12T11:05:34.184Z,24.60
2018-06-12T11:08:02.016Z,24.60
2018-06-12T11:10:29.738Z,24.40
2018-06-12T11:12:57.548Z,24.30
2018-06-12T11:15:25.251Z,24.40
2018-06-12T11:17:53.257Z,24.60
2018-06-12T11:20:20.978Z,24.60
2018-06-12T11:22:49.383Z,24.60
2018-06-12T11:25:17.058Z,24.70
2018-06-12T11:27:44.963Z,24.50
2018-06-12T11:30:12.779Z,24.60
2018-06-12T11:32:40.490Z,24.60
2018-06-12T11:35:08.283Z,25.00
2018-06-12T11:37:36.000Z,25.30
2018-06-12T11:40:04.031Z,25.20
2018-06-12T11:42:31.845Z,25.10
2018-06-12T11:44:59.722Z,25.00
2018-06-12T11:47:27.503Z,24.90
2018-06-12T11:49:55.265Z,24.60
2018-06-12T11:52:23.003Z,24.70
2018-06-12T11:54:50.772Z,24.70
2018-06-12T11:57:18.665Z,24.80
2018-06-12T11:59:46.398Z,25.10
2018-06-12T12:02:14.070Z,25.80
2018-06-12T12:04:41.838Z,26.50
2018-06-12T12:07:09.549Z,27.00
2018-06-12T12:09:37.346Z,27.30
2018-06-12T12:12:05.158Z,28.60
2018-06-12T12:14:32.971Z,30.20
2018-06-12T12:17:00.696Z,30.30
2018-06-12T12:19:28.485Z,30.90
2018-06-12T12:21:56.225Z,31.30
2018-06-12T12:24:24.806Z,31.10
2018-06-12T12:26:52.961Z,30.10
2018-06-12T12:29:20.841Z,29.30
2018-06-12T12:31:48.590Z,28.60
2018-06-12T12:34:16.313Z,28.70
2018-06-12T12:36:44.090Z,27.90
2018-06-12T12:39:11.849Z,27.50
2018-06-12T12:41:39.805Z,27.40
2018-06-12T12:44:07.544Z,27.30
2018-06-12T12:46:35.282Z,27.10
2018-06-12T12:49:03.144Z,27.50
2018-06-12T12:51:30.934Z,28.50
2018-06-12T12:53:58.675Z,29.00
2018-06-12T12:56:26.414Z,28.80
2018-06-12T13:01:21.868Z,28.20
2018-06-12T13:03:49.590Z,27.50
2018-06-12T13:06:25.175Z,26.90
2018-06-12T13:08:53.007Z,26.70
2018-06-12T13:11:20.751Z,26.50
2018-06-12T13:13:48.783Z,26.20
2018-06-12T13:16:16.551Z,25.70
2018-06-12T13:18:44.317Z,25.80
2018-06-12T13:21:12.113Z,25.30
2018-06-12T13:23:39.880Z,24.40
2018-06-12T13:26:07.612Z,23.80
2018-06-12T13:31:04.353Z,24.00
2018-06-12T13:33:32.217Z,24.10
2018-06-12T13:35:59.954Z,24.20
2018-06-12T13:38:27.714Z,24.40
2018-06-12T13:40:55.478Z,24.50
2018-06-12T13:43:23.252Z,24.50
2018-06-12T13:45:56.260Z,24.20
2018-06-12T13:48:24.226Z,23.80
2018-06-12T13:50:52.069Z,23.50
2018-06-12T13:53:19.824Z,23.20
2018-06-12T13:55:47.580Z,23.10
2018-06-12T13:58:16.845Z,23.00
2018-06-12T14:00:44.608Z,22.30
2018-06-12T14:03:12.335Z,21.90
2018-06-12T14:05:40.178Z,21.80
2018-06-12T14:08:07.962Z,21.50
2018-06-12T14:10:35.786Z,21.10
2018-06-12T14:13:03.786Z,20.40
2018-06-12T14:15:31.840Z,19.60
2018-06-12T14:17:59.597Z,19.10
2018-06-12T14:20:27.350Z,18.60
2018-06-12T14:22:55.117Z,18.30
2018-06-12T14:25:22.968Z,17.80
2018-06-12T14:27:50.821Z,17.20
2018-06-12T14:30:18.603Z,17.20
2018-06-12T14:32:46.307Z,17.40
2018-06-12T14:35:14.265Z,17.70
2018-06-12T14:37:42.216Z,18.10
2018-06-12T14:40:10.107Z,18.50
2018-06-12T14:42:37.870Z,18.50
2018-06-12T14:45:05.806Z,18.50
2018-06-12T14:47:33.646Z,18.40
2018-06-12T14:50:01.369Z,18.50
2018-06-12T14:52:29.118Z,18.40
2018-06-12T14:54:56.840Z,18.60
2018-06-12T14:57:24.696Z,18.80
2018-06-12T14:59:52.381Z,19.00
2018-06-12T15:04:47.922Z,19.40
2018-06-12T15:07:18.850Z,19.40
2018-06-12T15:09:46.645Z,19.60
2018-06-12T15:12:14.414Z,19.60
2018-06-12T15:14:42.192Z,19.70
2018-06-12T15:17:10.017Z,19.70
2018-06-12T15:19:37.911Z,19.60
2018-06-12T15:22:05.712Z,19.80
2018-06-12T15:24:33.494Z,19.80
2018-06-12T15:27:01.315Z,20.00
2018-06-12T15:29:29.067Z,20.00
2018-06-12T15:31:56.799Z,20.30
2018-06-12T15:34:24.568Z,20.20
2018-06-12T15:36:52.296Z,20.20
2018-06-12T15:39:20.170Z,20.20
2018-06-12T15:41:47.962Z,20.20
2018-06-12T15:44:15.679Z,20.10
2018-06-12T15:46:43.456Z,20.30
2018-06-12T15:49:11.429Z,20.30
2018-06-12T15:51:39.156Z,20.40
2018-06-12T15:54:07.002Z,20.30
2018-06-12T15:56:34.751Z,20.10
2018-06-12T15:59:02.493Z,20.10
2018-06-12T16:01:30.353Z,20.00
2018-06-12T16:03:58.086Z,19.90
2018-06-12T16:06:25.842Z,20.00
2018-06-12T16:08:53.614Z,19.90
2018-06-12T16:11:21.362Z,19.80
2018-06-12T16:13:49.093Z,19.80
2018-06-12T16:16:16.893Z,19.70
2018-06-12T16:18:45.287Z,19.70
2018-06-12T16:21:13.205Z,19.70
2018-06-12T16:23:41.024Z,19.70
2018-06-12T16:26:09.513Z,19.70
2018-06-12T16:28:38.091Z,19.60
2018-06-12T16:31:12.493Z,19.50
2018-06-12T16:33:40.651Z,19.50
2018-06-12T16:36:08.443Z,19.50
2018-06-12T16:38:36.318Z,19.40
2018-06-12T16:41:04.114Z,19.50
2018-06-12T16:43:31.886Z,19.50
2018-06-12T16:45:59.622Z,19.60
2018-06-12T16:48:27.422Z,19.40
2018-06-12T16:50:55.254Z,19.40
2018-06-12T16:53:23.035Z,19.50
2018-06-12T16:55:50.989Z,19.60
2018-06-12T16:58:18.973Z,19.70
2018-06-12T17:00:46.783Z,19.50
2018-06-12T17:03:14.625Z,19.60
2018-06-12T17:05:42.451Z,19.60
2018-06-12T17:08:10.984Z,19.70
2018-06-12T17:10:38.811Z,19.70
2018-06-12T17:13:06.692Z,19.70
2018-06-12T17:15:35.044Z,19.60
2018-06-12T17:18:03.414Z,19.80
2018-06-12T17:20:31.684Z,19.80
2018-06-12T17:22:59.830Z,19.90
2018-06-12T17:25:28.070Z,19.90
2018-06-12T17:27:56.031Z,19.80
2018-06-12T17:30:23.850Z,19.90
2018-06-12T17:32:51.691Z,19.90
2018-06-12T17:35:19.577Z,20.00
2018-06-12T17:37:47.648Z,20.00
2018-06-12T17:40:15.549Z,20.00
2018-06-12T17:42:43.583Z,20.00
2018-06-12T17:45:12.218Z,19.90
2018-06-12T17:47:40.957Z,20.00
2018-06-12T17:50:09.657Z,20.00
2018-06-12T17:52:39.385Z,20.00
2018-06-12T17:55:08.200Z,20.00
2018-06-12T17:57:36.871Z,19.90
2018-06-12T18:00:05.884Z,19.70
2018-06-12T18:02:34.428Z,19.60
2018-06-12T18:05:03.107Z,19.60
2018-06-12T18:07:31.124Z,19.50
2018-06-12T18:09:58.925Z,19.40
2018-06-12T18:12:26.710Z,19.30
2018-06-12T18:14:54.698Z,19.10
2018-06-12T18:17:22.889Z,19.00
2018-06-12T18:19:56.773Z,19.10
2018-06-12T18:22:25.637Z,19.10
2018-06-12T18:24:54.073Z,19.10
2018-06-12T18:27:22.445Z,19.00
2018-06-12T18:29:50.915Z,18.90
2018-06-12T18:32:19.789Z,18.90
2018-06-12T18:34:48.404Z,18.90
2018-06-12T18:37:16.934Z,18.90
2018-06-12T18:39:44.783Z,18.90
2018-06-12T18:42:12.608Z,18.70
2018-06-12T18:44:40.436Z,18.80
2018-06-12T18:47:08.239Z,18.70
2018-06-12T18:52:07.841Z,18.70
2018-06-12T18:54:35.690Z,18.70
2018-06-12T18:57:03.651Z,18.60
2018-06-12T18:59:31.494Z,18.50
2018-06-12T19:01:59.335Z,18.50
2018-06-12T19:04:27.220Z,18.30
2018-06-12T19:06:55.051Z,18.30
2018-06-12T19:09:23.101Z,18.30
2018-06-12T19:11:53.531Z,18.30
2018-06-12T19:14:21.361Z,18.30
2018-06-12T19:16:49.208Z,18.40
2018-06-12T19:19:17.165Z,18.30
2018-06-12T19:21:45.120Z,18.30
2018-06-12T19:24:12.901Z,18.20
2018-06-12T19:26:40.698Z,18.30
2018-06-12T19:29:08.434Z,18.20
2018-06-12T19:31:36.219Z,18.20
2018-06-12T19:34:07.859Z,18.10
2018-06-12T19:36:35.581Z,18.10
2018-06-12T19:39:05.364Z,18.00
2018-06-12T19:41:33.408Z,17.90
2018-06-12T19:44:01.403Z,17.90
2018-06-12T19:46:29.328Z,17.90
2018-06-12T19:48:57.788Z,18.00
2018-06-12T19:51:25.679Z,17.90
2018-06-12T19:53:53.504Z,17.90
2018-06-12T19:56:21.295Z,17.90
2018-06-12T19:58:49.211Z,17.90
2018-06-12T20:01:17.346Z,17.80
2018-06-12T20:03:45.204Z,17.80
2018-06-12T20:06:13.162Z,17.70
2018-06-12T20:08:40.895Z,17.60
2018-06-12T20:11:08.760Z,17.60
2018-06-12T20:13:36.643Z,17.70
2018-06-12T20:16:04.655Z,17.70
2018-06-12T20:18:32.531Z,17.80
2018-06-12T20:21:00.768Z,17.80
2018-06-12T20:23:28.679Z,17.80
2018-06-12T20:25:56.432Z,17.80
2018-06-12T20:28:24.239Z,17.90
2018-06-12T20:30:51.995Z,17.80
2018-06-12T20:33:19.790Z,17.70
2018-06-12T20:35:47.647Z,17.70
2018-06-12T20:38:15.515Z,17.70
2018-06-12T20:40:43.272Z,17.70
2018-06-12T20:43:16.530Z,17.70
2018-06-12T20:45:44.346Z,17.60
2018-06-12T20:48:12.581Z,17.60
2018-06-12T20:50:40.387Z,17.60
2018-06-12T20:53:08.166Z,17.50
2018-06-12T20:55:35.947Z,17.50
2018-06-12T21:00:31.454Z,17.50
2018-06-12T21:02:59.245Z,17.50
2018-06-12T21:05:27.053Z,17.50
2018-06-12T21:07:54.860Z,17.40
2018-06-12T21:10:22.629Z,17.40
2018-06-12T21:12:50.606Z,17.40
2018-06-12T21:15:18.411Z,17.40
2018-06-12T21:17:46.171Z,17.40
2018-06-12T21:20:14.039Z,17.30
2018-06-12T21:22:41.805Z,17.20
2018-06-12T21:25:09.696Z,17.20
2018-06-12T21:27:37.459Z,17.10
2018-06-12T21:30:10.958Z,17.10
2018-06-12T21:32:38.782Z,17.20
2018-06-12T21:35:06.865Z,17.10
2018-06-12T21:37:34.961Z,17.10
2018-06-12T21:40:02.977Z,17.00
2018-06-12T21:42:30.784Z,17.00
2018-06-12T21:44:58.590Z,17.10
2018-06-12T21:47:26.406Z,17.10
2018-06-12T21:49:54.251Z,16.90
2018-06-12T21:52:22.257Z,16.90
2018-06-12T21:54:50.083Z,16.90
2018-06-12T21:57:17.877Z,16.90
2018-06-12T21:59:45.629Z,16.70
2018-06-12T22:02:13.451Z,16.70
2018-06-12T22:04:41.294Z,16.60
2018-06-12T22:07:09.158Z,16.60
2018-06-12T22:09:36.984Z,16.50
2018-06-12T22:12:04.751Z,16.50
2018-06-12T22:14:32.546Z,16.50
2018-06-12T22:17:00.340Z,16.50
2018-06-12T22:21:57.663Z,16.60
2018-06-12T22:24:26.343Z,16.50
2018-06-12T22:26:54.199Z,16.50
2018-06-12T22:29:21.999Z,16.50
2018-06-12T22:31:49.795Z,16.50
2018-06-12T22:34:17.576Z,16.50
2018-06-12T22:36:45.319Z,16.50
2018-06-12T22:39:13.277Z,16.50
2018-06-12T22:41:41.338Z,16.40
2018-06-12T22:44:09.126Z,16.30
2018-06-12T22:49:04.823Z,16.10
2018-06-12T22:51:32.548Z,16.10
2018-06-12T22:54:00.423Z,16.20
2018-06-12T22:56:28.219Z,16.20
2018-06-12T22:58:55.994Z,16.10
2018-06-12T23:01:23.725Z,16.10
2018-06-12T23:03:51.533Z,16.10
2018-06-12T23:08:47.206Z,16.10
2018-06-12T23:11:15.021Z,16.00
2018-06-12T23:13:42.773Z,16.00
2018-06-12T23:16:10.516Z,16.10
2018-06-12T23:18:38.225Z,16.00
2018-06-12T23:21:20.170Z,16.10
2018-06-12T23:23:47.932Z,16.10
2018-06-12T23:26:15.830Z,16.00
2018-06-12T23:28:43.551Z,15.90
2018-06-12T23:31:11.369Z,15.90
2018-06-12T23:33:39.315Z,15.90
2018-06-12T23:36:07.193Z,15.90
2018-06-12T23:38:34.922Z,15.80
2018-06-12T23:41:02.634Z,15.80
2018-06-12T23:43:30.466Z,15.80
2018-06-12T23:45:58.165Z,15.70
2018-06-12T23:50:53.942Z,15.50
2018-06-12T23:53:21.719Z,15.40
2018-06-12T23:55:49.485Z,15.50
2018-06-12T23:58:17.246Z,15.20
